createdAt,value
2023-01-28T00:00:54.653Z,3.23
2023-01-28T00:03:21.692Z,3.25
2023-01-28T00:05:48.531Z,3.25
2023-01-28T00:08:15.170Z,3.26
2023-01-28T00:10:45.247Z,3.24
2023-01-28T00:13:14.862Z,3.27
2023-01-28T00:15:42.144Z,3.27
2023-01-28T00:18:09.101Z,3.27
2023-01-28T00:20:35.742Z,3.26
2023-01-28T00:23:02.794Z,3.23
2023-01-28T00:25:29.593Z,3.22
2023-01-28T00:27:56.226Z,3.20
2023-01-28T00:30:23.486Z,3.18
2023-01-28T00:32:50.270Z,3.18
2023-01-28T00:35:17.173Z,3.15
2023-01-28T00:37:46.480Z,3.15
2023-01-28T00:40:13.348Z,3.12
2023-01-28T00:42:39.988Z,3.14
2023-01-28T00:45:07.089Z,3.15
2023-01-28T00:47:33.707Z,3.18
2023-01-28T00:50:00.388Z,3.18
2023-01-28T00:52:27.740Z,3.17
2023-01-28T00:54:54.552Z,3.16
2023-01-28T00:57:21.129Z,3.14
2023-01-28T00:59:47.745Z,3.12
2023-01-28T01:02:14.442Z,3.11
2023-01-28T01:04:41.205Z,3.10
2023-01-28T01:07:08.086Z,3.10
2023-01-28T01:09:34.815Z,3.10
2023-01-28T01:12:01.756Z,3.11
2023-01-28T01:14:28.485Z,3.15
2023-01-28T01:16:55.071Z,3.18
2023-01-28T01:19:21.734Z,3.23
2023-01-28T01:21:50.777Z,3.27
2023-01-28T01:24:18.115Z,3.28
2023-01-28T01:26:44.831Z,3.31
2023-01-28T01:29:11.657Z,3.32
2023-01-28T01:31:38.430Z,3.34
2023-01-28T01:34:05.214Z,3.37
2023-01-28T01:36:31.882Z,3.37
2023-01-28T01:38:58.591Z,3.38
2023-01-28T01:41:29.347Z,3.38
2023-01-28T01:43:59.189Z,3.40
2023-01-28T01:46:37.924Z,3.42
2023-01-28T01:49:23.356Z,3.47
2023-01-28T01:51:55.448Z,3.51
2023-01-28T01:54:26.641Z,3.53
2023-01-28T01:56:53.611Z,3.55
2023-01-28T01:59:28.679Z,3.56
2023-01-28T02:01:55.661Z,3.58
2023-01-28T02:04:35.684Z,3.60
2023-01-28T02:07:03.202Z,3.60
2023-01-28T02:09:32.935Z,3.60
2023-01-28T02:12:08.584Z,3.58
2023-01-28T02:14:42.221Z,3.56
2023-01-28T02:17:08.980Z,3.57
2023-01-28T02:19:53.793Z,3.59
2023-01-28T02:22:47.852Z,3.62
2023-01-28T02:25:51.920Z,3.66
2023-01-28T02:28:33.740Z,3.69
2023-01-28T02:31:39.164Z,3.72
2023-01-28T02:34:33.694Z,3.75
2023-01-28T02:37:07.612Z,3.76
2023-01-28T02:39:40.664Z,3.76
2023-01-28T02:42:17.872Z,3.76
2023-01-28T02:44:44.535Z,3.76
2023-01-28T02:47:31.121Z,3.76
2023-01-28T02:50:01.671Z,3.76
2023-01-28T02:52:56.013Z,3.76
2023-01-28T02:55:39.609Z,3.74
2023-01-28T02:58:27.965Z,3.75
2023-01-28T03:01:38.261Z,3.74
2023-01-28T03:04:35.480Z,3.72
2023-01-28T03:07:07.105Z,3.73
2023-01-28T03:09:34.731Z,3.73
2023-01-28T03:12:26.067Z,3.73
2023-01-28T03:15:17.216Z,3.74
2023-01-28T03:18:04.259Z,3.72
2023-01-28T03:21:24.495Z,3.68
2023-01-28T03:24:14.492Z,3.66
2023-01-28T03:27:29.444Z,3.65
2023-01-28T03:30:19.145Z,3.65
2023-01-28T03:33:04.610Z,3.63
2023-01-28T03:35:53.135Z,3.63
2023-01-28T03:38:23.823Z,3.63
2023-01-28T03:40:57.336Z,3.64
2023-01-28T03:43:24.598Z,3.66
2023-01-28T03:45:51.620Z,3.66
2023-01-28T03:48:26.080Z,3.67
2023-01-28T03:50:53.389Z,3.68
2023-01-28T03:53:20.305Z,3.68
2023-01-28T03:55:49.619Z,3.68
2023-01-28T03:58:17.442Z,3.67
2023-01-28T04:00:44.106Z,3.67
2023-01-28T04:03:17.293Z,3.65
2023-01-28T04:06:02.163Z,3.65
2023-01-28T04:08:29.140Z,3.65
2023-01-28T04:10:56.214Z,3.66
2023-01-28T04:13:23.095Z,3.69
2023-01-28T04:15:49.962Z,3.71
2023-01-28T04:18:16.700Z,3.73
2023-01-28T04:20:43.336Z,3.72
2023-01-28T04:23:09.989Z,3.73
2023-01-28T04:25:36.767Z,3.73
2023-01-28T04:28:03.478Z,3.74
2023-01-28T04:30:30.131Z,3.74
2023-01-28T04:32:56.764Z,3.75
2023-01-28T04:35:23.367Z,3.77
2023-01-28T04:37:50.000Z,3.80
2023-01-28T04:40:16.894Z,3.84
2023-01-28T04:42:43.619Z,3.86
2023-01-28T04:45:10.679Z,3.88
2023-01-28T04:47:37.309Z,3.90
2023-01-28T04:50:04.205Z,3.89
2023-01-28T04:52:30.854Z,3.90
2023-01-28T04:54:57.528Z,3.92
2023-01-28T04:57:24.182Z,3.94
2023-01-28T04:59:50.824Z,3.94
2023-01-28T05:02:17.576Z,3.95
2023-01-28T05:04:45.988Z,3.96
2023-01-28T05:07:13.703Z,3.96
2023-01-28T05:09:40.397Z,3.96
2023-01-28T05:12:07.065Z,3.97
2023-01-28T05:14:33.737Z,3.99
2023-01-28T05:17:00.465Z,4.01
2023-01-28T05:19:27.163Z,4.02
2023-01-28T05:21:53.779Z,4.03
2023-01-28T05:24:21.640Z,4.05
2023-01-28T05:26:48.449Z,4.05
2023-01-28T05:29:15.072Z,4.06
2023-01-28T05:31:41.661Z,4.07
2023-01-28T05:34:08.632Z,4.07
2023-01-28T05:36:35.212Z,4.09
2023-01-28T05:39:01.829Z,4.08
2023-01-28T05:41:28.489Z,4.10
2023-01-28T05:43:55.120Z,4.10
2023-01-28T05:46:21.790Z,4.10
2023-01-28T05:48:48.427Z,4.10
2023-01-28T05:51:15.079Z,4.09
2023-01-28T05:53:41.909Z,4.07
2023-01-28T05:56:08.866Z,4.05
2023-01-28T05:58:35.552Z,4.02
2023-01-28T06:01:02.517Z,4.00
2023-01-28T06:03:29.191Z,3.98
2023-01-28T06:05:55.866Z,3.96
2023-01-28T06:08:22.528Z,3.95
2023-01-28T06:10:49.138Z,3.94
2023-01-28T06:13:15.758Z,3.93
2023-01-28T06:15:42.392Z,3.92
2023-01-28T06:18:09.058Z,3.90
2023-01-28T06:20:35.743Z,3.89
2023-01-28T06:23:02.537Z,3.87
2023-01-28T06:25:29.195Z,3.84
2023-01-28T06:27:55.960Z,3.82
2023-01-28T06:30:22.542Z,3.80
2023-01-28T06:32:54.864Z,3.79
2023-01-28T06:35:21.893Z,3.75
2023-01-28T06:37:48.535Z,3.74
2023-01-28T06:40:15.502Z,3.73
2023-01-28T06:42:42.346Z,3.71
2023-01-28T06:45:09.295Z,3.70
2023-01-28T06:47:35.891Z,3.68
2023-01-28T06:50:02.505Z,3.67
2023-01-28T06:52:29.232Z,3.69
2023-01-28T06:54:55.911Z,3.72
2023-01-28T06:57:22.702Z,3.74
2023-01-28T06:59:49.372Z,3.78
2023-01-28T07:02:16.000Z,3.82
2023-01-28T07:04:42.631Z,3.86
2023-01-28T07:07:09.303Z,3.88
2023-01-28T07:09:35.947Z,3.90
2023-01-28T07:12:05.333Z,3.92
2023-01-28T07:14:32.389Z,3.92
2023-01-28T07:16:59.114Z,3.95
2023-01-28T07:19:25.782Z,3.97
2023-01-28T07:21:52.360Z,3.99
2023-01-28T07:24:19.063Z,4.02
2023-01-28T07:26:47.876Z,4.05
2023-01-28T07:29:14.493Z,4.06
2023-01-28T07:31:41.212Z,4.07
2023-01-28T07:34:09.545Z,4.08
2023-01-28T07:36:36.171Z,4.09
2023-01-28T07:39:03.030Z,4.09
2023-01-28T07:41:29.715Z,4.10
2023-01-28T07:43:56.447Z,4.10
2023-01-28T07:46:23.019Z,4.10
2023-01-28T07:48:49.761Z,4.08
2023-01-28T07:51:16.410Z,4.05
2023-01-28T07:53:43.169Z,4.04
2023-01-28T07:56:09.849Z,4.02
2023-01-28T07:58:36.521Z,4.02
2023-01-28T08:01:03.348Z,4.03
2023-01-28T08:03:30.259Z,4.04
2023-01-28T08:05:58.539Z,4.08
2023-01-28T08:08:27.423Z,4.09
2023-01-28T08:10:54.412Z,4.13
2023-01-28T08:13:21.387Z,4.18
2023-01-28T08:15:48.270Z,4.22
2023-01-28T08:18:16.435Z,4.25
2023-01-28T08:20:44.981Z,4.29
2023-01-28T08:23:16.853Z,4.31
2023-01-28T08:25:43.591Z,4.32
2023-01-28T08:28:11.147Z,4.36
2023-01-28T08:30:39.196Z,4.39
2023-01-28T08:33:08.282Z,4.41
2023-01-28T08:35:35.855Z,4.46
2023-01-28T08:38:04.244Z,4.48
2023-01-28T08:40:31.149Z,4.51
2023-01-28T08:42:58.308Z,4.53
2023-01-28T08:45:28.051Z,4.55
2023-01-28T08:47:57.374Z,4.57
2023-01-28T08:50:26.427Z,4.56
2023-01-28T08:52:57.698Z,4.57
2023-01-28T08:55:25.415Z,4.56
2023-01-28T08:57:52.391Z,4.54
2023-01-28T09:00:20.126Z,4.53
2023-01-28T09:02:46.784Z,4.53
2023-01-28T09:05:13.784Z,4.53
2023-01-28T09:07:40.441Z,4.57
2023-01-28T09:10:07.540Z,4.59
2023-01-28T09:12:34.223Z,4.66
2023-01-28T09:15:00.848Z,4.71
2023-01-28T09:17:27.963Z,4.80
2023-01-28T09:19:54.549Z,4.86
2023-01-28T09:22:21.226Z,4.91
2023-01-28T09:24:47.879Z,4.97
2023-01-28T09:27:14.682Z,5.00
2023-01-28T09:29:41.331Z,5.02
2023-01-28T09:32:07.981Z,5.02
2023-01-28T09:34:34.821Z,5.03
2023-01-28T09:37:01.824Z,5.04
2023-01-28T09:39:31.478Z,5.09
2023-01-28T09:42:23.613Z,5.14
2023-01-28T09:45:16.301Z,5.20
2023-01-28T09:47:54.025Z,5.24
2023-01-28T09:50:26.123Z,5.27
2023-01-28T09:52:57.536Z,5.28
2023-01-28T09:55:38.830Z,5.31
2023-01-28T09:58:15.088Z,5.34
2023-01-28T10:00:53.657Z,5.35
2023-01-28T10:03:30.419Z,5.37
2023-01-28T10:06:21.578Z,5.40
2023-01-28T10:09:06.882Z,5.44
2023-01-28T10:11:33.520Z,5.49
2023-01-28T10:14:00.098Z,5.52
2023-01-28T10:16:35.077Z,5.53
2023-01-28T10:19:08.248Z,5.56
2023-01-28T10:21:41.901Z,5.58
2023-01-28T10:24:22.056Z,5.61
2023-01-28T10:26:49.411Z,5.64
2023-01-28T10:29:20.445Z,5.67
2023-01-28T10:32:04.230Z,5.67
2023-01-28T10:34:30.973Z,5.69
2023-01-28T10:36:58.309Z,5.72
2023-01-28T10:39:26.633Z,5.75
2023-01-28T10:41:58.319Z,5.77
2023-01-28T10:44:40.780Z,5.85
2023-01-28T10:47:14.652Z,5.90
2023-01-28T10:49:52.383Z,5.93
2023-01-28T10:52:19.106Z,5.94
2023-01-28T10:54:45.697Z,5.95
2023-01-28T10:57:19.155Z,5.95
2023-01-28T10:59:45.873Z,6.00
2023-01-28T11:02:24.481Z,6.02
2023-01-28T11:05:02.863Z,6.06
2023-01-28T11:07:29.583Z,6.11
2023-01-28T11:09:56.191Z,6.17
2023-01-28T11:12:29.188Z,6.19
2023-01-28T11:15:00.124Z,6.24
2023-01-28T11:17:31.186Z,6.31
2023-01-28T11:20:01.769Z,6.42
2023-01-28T11:22:39.309Z,6.50
2023-01-28T11:25:24.956Z,6.58
2023-01-28T11:27:53.888Z,6.62
2023-01-28T11:30:25.166Z,6.65
2023-01-28T11:32:57.353Z,6.66
2023-01-28T11:35:31.161Z,6.67
2023-01-28T11:37:59.127Z,6.69
2023-01-28T11:40:26.202Z,6.75
2023-01-28T11:42:56.965Z,6.79
2023-01-28T11:45:56.052Z,6.84
2023-01-28T11:48:55.054Z,6.88
2023-01-28T11:51:35.977Z,6.90
2023-01-28T11:54:05.591Z,6.88
2023-01-28T11:56:51.305Z,6.84
2023-01-28T11:59:29.979Z,6.79
2023-01-28T12:02:21.463Z,6.77
2023-01-28T12:05:06.528Z,6.75
2023-01-28T12:07:48.352Z,6.73
2023-01-28T12:10:17.146Z,6.70
2023-01-28T12:13:10.028Z,6.67
2023-01-28T12:15:37.491Z,6.65
2023-01-28T12:18:04.126Z,6.67
2023-01-28T12:20:52.141Z,6.67
2023-01-28T12:23:42.838Z,6.68
2023-01-28T12:26:31.319Z,6.69
2023-01-28T12:29:04.296Z,6.70
2023-01-28T12:31:48.035Z,6.71
2023-01-28T12:34:29.894Z,6.70
2023-01-28T12:37:22.833Z,6.65
2023-01-28T12:40:15.934Z,6.62
2023-01-28T12:42:50.343Z,6.61
2023-01-28T12:45:55.847Z,6.64
2023-01-28T12:48:30.677Z,6.69
2023-01-28T12:51:08.359Z,6.74
2023-01-28T12:53:52.630Z,6.78
2023-01-28T12:56:34.057Z,6.79
2023-01-28T12:59:10.381Z,6.78
2023-01-28T13:01:47.469Z,6.79
2023-01-28T13:04:25.552Z,6.81
2023-01-28T13:07:13.705Z,6.83
2023-01-28T13:09:49.603Z,6.84
2023-01-28T13:12:17.272Z,6.85
2023-01-28T13:14:45.031Z,6.85
2023-01-28T13:17:32.107Z,6.83
2023-01-28T13:20:01.276Z,6.80
2023-01-28T13:22:36.533Z,6.80
2023-01-28T13:25:23.552Z,6.80
2023-01-28T13:27:58.965Z,6.80
2023-01-28T13:30:29.109Z,6.75
2023-01-28T13:32:58.876Z,6.74
2023-01-28T13:35:32.413Z,6.73
2023-01-28T13:38:00.765Z,6.71
2023-01-28T13:40:28.550Z,6.69
2023-01-28T13:43:07.272Z,6.67
2023-01-28T13:45:39.496Z,6.65
2023-01-28T13:48:24.012Z,6.62
2023-01-28T13:50:57.781Z,6.59
2023-01-28T13:53:39.797Z,6.59
2023-01-28T13:56:18.038Z,6.57
2023-01-28T13:59:15.931Z,6.58
2023-01-28T14:01:57.573Z,6.58
2023-01-28T14:04:56.858Z,6.59
2023-01-28T14:07:34.709Z,6.59
2023-01-28T14:10:11.989Z,6.62
2023-01-28T14:13:07.595Z,6.65
2023-01-28T14:16:04.632Z,6.66
2023-01-28T14:18:38.731Z,6.64
2023-01-28T14:21:13.029Z,6.65
2023-01-28T14:23:49.026Z,6.67
2023-01-28T14:26:33.973Z,6.68
2023-01-28T14:29:13.336Z,6.68
2023-01-28T14:31:40.562Z,6.66
2023-01-28T14:34:12.187Z,6.63
2023-01-28T14:36:41.480Z,6.61
2023-01-28T14:39:26.428Z,6.61
2023-01-28T14:41:56.686Z,6.60
2023-01-28T14:44:29.388Z,6.59
2023-01-28T14:47:26.209Z,6.56
2023-01-28T14:49:52.747Z,6.53
2023-01-28T14:52:34.445Z,6.56
2023-01-28T14:55:09.789Z,6.56
2023-01-28T14:57:55.100Z,6.57
2023-01-28T15:00:33.919Z,6.56
2023-01-28T15:03:01.841Z,6.56
2023-01-28T15:05:32.031Z,6.56
2023-01-28T15:07:59.694Z,6.56
2023-01-28T15:10:30.361Z,6.56
2023-01-28T15:13:10.843Z,6.54
2023-01-28T15:15:40.272Z,6.53
2023-01-28T15:18:18.965Z,6.50
2023-01-28T15:20:47.827Z,6.47
2023-01-28T15:26:07.268Z,6.41
2023-01-28T15:28:37.587Z,6.38
2023-01-28T15:31:04.452Z,6.35
2023-01-28T15:33:31.167Z,6.37
2023-01-28T15:35:58.981Z,6.37
2023-01-28T15:38:28.727Z,6.36
2023-01-28T15:41:00.528Z,6.37
2023-01-28T15:43:31.098Z,6.36
2023-01-28T15:45:59.589Z,6.35
2023-01-28T15:48:32.092Z,6.34
2023-01-28T15:51:06.427Z,6.36
2023-01-28T15:53:45.456Z,6.37
2023-01-28T15:56:15.932Z,6.38
2023-01-28T15:58:43.174Z,6.38
2023-01-28T16:01:09.926Z,6.35
2023-01-28T16:03:40.042Z,6.33
2023-01-28T16:06:11.752Z,6.29
2023-01-28T16:08:54.388Z,6.27
2023-01-28T16:11:32.583Z,6.26
2023-01-28T16:14:00.732Z,6.24
2023-01-28T16:16:34.501Z,6.23
2023-01-28T16:19:06.739Z,6.26
2023-01-28T16:21:38.075Z,6.25
2023-01-28T16:24:07.879Z,6.25
2023-01-28T16:26:36.150Z,6.25
2023-01-28T16:29:17.050Z,6.25
2023-01-28T16:31:46.190Z,6.25
2023-01-28T16:34:12.858Z,6.27
2023-01-28T16:36:39.792Z,6.27
2023-01-28T16:39:06.488Z,6.26
2023-01-28T16:41:38.199Z,6.23
2023-01-28T16:44:05.994Z,6.25
2023-01-28T16:46:36.460Z,6.25
2023-01-28T16:49:05.534Z,6.26
2023-01-28T16:51:32.518Z,6.25
2023-01-28T16:53:59.293Z,6.24
2023-01-28T16:56:45.947Z,6.22
2023-01-28T16:59:15.014Z,6.20
2023-01-28T17:01:51.473Z,6.21
2023-01-28T17:04:18.776Z,6.22
2023-01-28T17:06:45.836Z,6.21
2023-01-28T17:09:24.205Z,6.19
2023-01-28T17:11:51.015Z,6.19
2023-01-28T17:14:17.664Z,6.20
2023-01-28T17:16:44.347Z,6.18
2023-01-28T17:19:11.004Z,6.17
2023-01-28T17:21:37.625Z,6.16
2023-01-28T17:24:05.085Z,6.14
2023-01-28T17:26:31.916Z,6.13
2023-01-28T17:28:58.547Z,6.13
2023-01-28T17:31:26.570Z,6.13
2023-01-28T17:34:08.151Z,6.11
2023-01-28T17:36:55.137Z,6.17
2023-01-28T17:40:10.425Z,6.19
2023-01-28T17:46:29.632Z,6.20
2023-01-28T17:49:03.069Z,6.20
2023-01-28T17:51:29.964Z,6.19
2023-01-28T17:57:47.733Z,6.17
2023-01-28T18:00:17.844Z,6.14
2023-01-28T18:02:48.919Z,6.12
2023-01-28T18:09:34.008Z,6.10
2023-01-28T18:12:00.699Z,6.09
2023-01-28T18:15:12.914Z,6.10
2023-01-28T18:17:39.667Z,6.10
2023-01-28T18:20:07.697Z,6.09
2023-01-28T18:22:45.105Z,6.09
2023-01-28T18:30:03.694Z,6.06
2023-01-28T18:32:40.809Z,6.04
2023-01-28T18:35:07.725Z,6.05
2023-01-28T18:37:34.308Z,6.04
2023-01-28T18:40:00.972Z,6.05
2023-01-28T18:42:27.677Z,6.05
2023-01-28T18:44:54.344Z,6.06
2023-01-28T18:47:21.743Z,6.05
2023-01-28T18:49:48.362Z,6.04
2023-01-28T18:52:15.015Z,6.04
2023-01-28T18:54:41.762Z,6.01
2023-01-28T18:57:09.183Z,5.99
2023-01-28T18:59:35.857Z,5.97
2023-01-28T19:02:02.689Z,5.95
2023-01-28T19:04:29.412Z,5.95
2023-01-28T19:06:57.519Z,5.93
2023-01-28T19:09:24.287Z,5.90
2023-01-28T19:11:51.303Z,5.89
2023-01-28T19:14:18.270Z,5.87
2023-01-28T19:16:46.629Z,5.87
2023-01-28T19:19:13.834Z,5.86
2023-01-28T19:21:40.557Z,5.85
2023-01-28T19:24:16.637Z,5.86
2023-01-28T19:26:44.810Z,5.86
2023-01-28T19:30:09.842Z,5.87
2023-01-28T19:32:45.619Z,5.89
2023-01-28T19:35:12.328Z,5.89
2023-01-28T19:37:38.943Z,5.90
2023-01-28T19:40:06.606Z,5.90
2023-01-28T19:42:34.774Z,5.88
2023-01-28T19:45:03.859Z,5.90
2023-01-28T19:47:54.157Z,5.91
2023-01-28T19:50:20.803Z,5.90
2023-01-28T19:52:47.418Z,5.90
2023-01-28T19:55:14.452Z,5.91
2023-01-28T19:57:41.395Z,5.90
2023-01-28T20:00:08.709Z,5.90
2023-01-28T20:02:35.436Z,5.91
2023-01-28T20:05:42.537Z,5.89
2023-01-28T20:08:10.531Z,5.88
2023-01-28T20:10:37.152Z,5.86
2023-01-28T20:13:06.257Z,5.85
2023-01-28T20:15:32.942Z,5.84
2023-01-28T20:17:59.649Z,5.81
2023-01-28T20:20:26.367Z,5.80
2023-01-28T20:23:25.569Z,5.75
2023-01-28T20:25:54.770Z,5.73
2023-01-28T20:28:29.960Z,5.71
2023-01-28T20:31:24.447Z,5.71
2023-01-28T20:38:10.028Z,5.68
2023-01-28T20:40:37.484Z,5.69
2023-01-28T20:43:04.124Z,5.68
2023-01-28T20:45:36.700Z,5.68
2023-01-28T20:48:03.346Z,5.69
2023-01-28T20:50:29.959Z,5.69
2023-01-28T20:53:00.483Z,5.69
2023-01-28T20:55:28.655Z,5.69
2023-01-28T21:02:54.467Z,5.71
2023-01-28T21:05:53.366Z,5.71
2023-01-28T21:08:20.092Z,5.73
2023-01-28T21:10:47.190Z,5.74
2023-01-28T21:13:51.403Z,5.71
2023-01-28T21:16:19.125Z,5.71
2023-01-28T21:18:45.974Z,5.70
2023-01-28T21:21:17.058Z,5.70
2023-01-28T21:23:43.808Z,5.71
2023-01-28T21:26:10.915Z,5.73
2023-01-28T21:28:37.620Z,5.73
2023-01-28T21:31:17.717Z,5.73
2023-01-28T21:33:48.474Z,5.72
2023-01-28T21:36:16.839Z,5.72
2023-01-28T21:38:45.753Z,5.69
2023-01-28T21:41:12.442Z,5.70
2023-01-28T21:43:39.096Z,5.70
2023-01-28T21:46:06.150Z,5.69
2023-01-28T21:48:33.023Z,5.69
2023-01-28T21:51:26.036Z,5.70
2023-01-28T21:53:54.387Z,5.71
2023-01-28T21:56:21.221Z,5.70
2023-01-28T21:59:06.389Z,5.69
2023-01-28T22:01:33.212Z,5.68
2023-01-28T22:04:00.765Z,5.67
2023-01-28T22:06:27.852Z,5.66
2023-01-28T22:08:55.233Z,5.67
2023-01-28T22:11:22.165Z,5.68
2023-01-28T22:13:48.990Z,5.67
2023-01-28T22:16:16.878Z,5.69
2023-01-28T22:18:43.582Z,5.70
2023-01-28T22:21:12.843Z,5.69
2023-01-28T22:23:39.973Z,5.68
2023-01-28T22:26:08.795Z,5.67
2023-01-28T22:28:36.536Z,5.67
2023-01-28T22:31:11.773Z,5.66
2023-01-28T22:33:38.585Z,5.65
2023-01-28T22:36:08.074Z,5.65
2023-01-28T22:38:36.938Z,5.66
2023-01-28T22:41:07.547Z,5.64
2023-01-28T22:43:34.551Z,5.65
2023-01-28T22:46:02.861Z,5.64
2023-01-28T22:48:29.989Z,5.63
2023-01-28T22:51:06.153Z,5.66
2023-01-28T22:53:33.920Z,5.65
2023-01-28T22:56:01.235Z,5.65
2023-01-28T22:58:31.505Z,5.64
2023-01-28T23:00:58.482Z,5.64
2023-01-28T23:03:25.435Z,5.63
2023-01-28T23:06:10.365Z,5.63
2023-01-28T23:08:56.505Z,5.61
2023-01-28T23:11:43.520Z,5.60
2023-01-28T23:14:50.021Z,5.60
2023-01-28T23:17:55.787Z,5.59
2023-01-28T23:21:01.267Z,5.59
2023-01-28T23:24:06.803Z,5.56
2023-01-28T23:26:59.482Z,5.54
2023-01-28T23:33:38.425Z,5.46
2023-01-28T23:36:25.734Z,5.46
2023-01-28T23:39:12.818Z,5.41
2023-01-28T23:42:08.413Z,5.39
2023-01-28T23:44:55.420Z,5.36
2023-01-28T23:48:15.525Z,5.34
2023-01-28T23:51:02.547Z,5.35
2023-01-28T23:53:53.208Z,5.36
2023-01-28T23:56:40.245Z,5.35
2023-01-28T23:59:27.556Z,5.32
